Time;durP1;ratioP1;P1;durP2;ratioP2;P2;SDS_P1;SDS_P2;PMS_P1;PMS_P2;Temp;Humidity;BMP_temperature;BMP_pressure;BME280_temperature;BME280_humidity;BME280_pressure;Samples;Min_cycle;Max_cycle;Signal;HPM_P1;HPM_P2
2021/12/24 00:06:17;;;;;;;0.20;0.07;;;10.70;99.90;;;;;;21084987;28;20192;-70
2021/12/24 00:16:26;;;;;;;0.20;0.00;;;10.70;99.90;;;;;;21065805;28;20254;-71
2021/12/24 00:36:54;;;;;;;0.20;0.00;;;10.60;99.90;;;;;;21045020;28;20220;-72
2021/12/24 00:46:58;;;;;;;0.20;0.10;;;10.80;99.90;;;;;;21080878;28;20262;-72
2021/12/24 00:57:04;;;;;;;0.20;0.10;;;11.00;99.90;;;;;;21080564;28;20611;-72
2021/12/24 01:07:07;;;;;;;0.20;0.00;;;11.10;99.90;;;;;;20897946;22;20261;-74
2021/12/24 01:17:21;;;;;;;0.20;0.10;;;11.20;99.90;;;;;;20830652;28;20622;-74
2021/12/24 01:27:41;;;;;;;0.20;0.10;;;11.40;99.90;;;;;;20829570;28;20256;-74
2021/12/24 01:37:59;;;;;;;0.20;0.00;;;11.60;99.90;;;;;;20828042;28;20327;-74
2021/12/24 01:48:05;;;;;;;0.20;0.00;;;11.60;99.90;;;;;;20828319;28;20281;-73
2021/12/24 01:58:10;;;;;;;0.20;0.10;;;11.80;99.90;;;;;;20771348;28;20230;-73
2021/12/24 02:08:16;;;;;;;0.20;0.10;;;11.90;99.90;;;;;;20784969;28;20695;-74
2021/12/24 02:28:14;;;;;;;0.20;0.00;;;12.20;99.90;;;;;;20827209;28;20246;-72
2021/12/24 02:29:07;;;;;;;0.20;0.00;;;12.10;99.90;;;;;;20809573;28;20217;-74
2021/12/24 02:39:11;;;;;;;0.20;0.00;;;12.10;99.90;;;;;;20824245;28;20279;-74
2021/12/24 02:53:53;;;;;;;0.20;0.10;;;11.90;99.90;;;;;;20826488;28;20198;-74
2021/12/24 02:59:47;;;;;;;2.40;1.90;;;11.60;99.90;;;;;;20832144;28;20233;-74
2021/12/24 03:09:54;;;;;;;0.20;0.00;;;11.60;99.90;;;;;;20841646;28;20605;-74
2021/12/24 03:20:04;;;;;;;0.20;0.10;;;11.90;99.90;;;;;;20838469;28;20222;-74
2021/12/24 03:30:13;;;;;;;0.20;0.00;;;12.50;99.90;;;;;;20838346;28;20200;-72
2021/12/24 03:40:17;;;;;;;0.20;0.00;;;12.80;99.90;;;;;;20836154;28;20258;-74
2021/12/24 03:50:26;;;;;;;0.20;0.00;;;12.70;99.90;;;;;;20837646;28;20281;-74
2021/12/24 04:00:32;;;;;;;0.20;0.10;;;12.70;99.90;;;;;;20837081;28;20241;-74
2021/12/24 04:10:43;;;;;;;0.20;0.00;;;12.60;99.90;;;;;;20836220;28;20230;-75
2021/12/24 04:31:27;;;;;;;0.20;0.10;;;12.20;99.90;;;;;;20825368;28;20194;-74
2021/12/24 04:51:58;;;;;;;0.20;0.10;;;12.30;99.90;;;;;;20833836;28;20189;-73
2021/12/24 05:02:14;;;;;;;0.20;0.00;;;12.30;99.90;;;;;;20865988;22;20311;-71
2021/12/24 05:12:20;;;;;;;0.20;0.00;;;12.30;99.90;;;;;;20914211;28;20204;-71
2021/12/24 05:22:24;;;;;;;0.20;0.10;;;12.40;99.90;;;;;;20911268;28;20229;-70
2021/12/24 05:32:30;;;;;;;0.20;0.00;;;12.40;99.90;;;;;;20909300;28;20197;-70
2021/12/24 05:42:35;;;;;;;0.20;0.10;;;12.50;99.90;;;;;;20910420;28;20228;-70
2021/12/24 05:52:40;;;;;;;0.20;0.10;;;12.70;99.90;;;;;;20908401;28;20200;-69
2021/12/24 06:02:45;;;;;;;0.20;0.00;;;12.80;99.90;;;;;;20905910;28;20241;-70
2021/12/24 06:12:51;;;;;;;0.20;0.00;;;12.90;99.90;;;;;;20904725;28;20201;-69
2021/12/24 06:22:55;;;;;;;0.20;0.00;;;13.00;99.90;;;;;;20903576;28;20283;-70
2021/12/24 06:33:01;;;;;;;0.20;0.00;;;13.10;99.90;;;;;;20912512;28;20224;-70
2021/12/24 06:43:06;;;;;;;0.20;0.00;;;13.10;99.90;;;;;;20924486;28;20592;-69
2021/12/24 06:53:11;;;;;;;0.20;0.00;;;13.10;99.90;;;;;;20922382;28;20193;-70
2021/12/24 07:03:15;;;;;;;0.20;0.00;;;13.20;99.90;;;;;;20920403;28;20251;-70
2021/12/24 07:13:20;;;;;;;0.20;0.10;;;13.30;99.90;;;;;;20919454;28;20284;-70
2021/12/24 07:23:24;;;;;;;0.20;0.00;;;13.30;99.90;;;;;;20919123;28;20217;-69
2021/12/24 07:33:29;;;;;;;0.20;0.00;;;13.40;99.90;;;;;;20916747;28;20200;-71
2021/12/24 07:43:34;;;;;;;0.20;0.00;;;13.40;99.90;;;;;;20917788;28;20596;-70
2021/12/24 07:53:39;;;;;;;0.20;0.00;;;13.30;99.90;;;;;;20877195;28;20671;-69
2021/12/24 08:03:43;;;;;;;0.20;0.00;;;13.20;99.90;;;;;;20818427;28;20709;-70
2021/12/24 08:13:48;;;;;;;0.20;0.10;;;13.30;99.90;;;;;;20820768;28;20243;-70
2021/12/24 08:23:52;;;;;;;0.20;0.00;;;13.50;99.90;;;;;;20821608;28;20227;-68
2021/12/24 08:33:59;;;;;;;0.20;0.10;;;13.60;99.90;;;;;;20815606;28;20202;-69
2021/12/24 08:44:05;;;;;;;0.20;0.00;;;13.60;99.90;;;;;;20812863;28;20218;-67
2021/12/24 08:54:10;;;;;;;0.20;0.00;;;13.70;99.90;;;;;;20843172;28;20202;-69
2021/12/24 09:04:15;;;;;;;0.20;0.00;;;13.80;99.90;;;;;;20883043;28;20310;-69
2021/12/24 09:14:21;;;;;;;0.20;0.00;;;13.90;99.90;;;;;;20832135;28;20646;-70
2021/12/24 09:24:25;;;;;;;0.20;0.00;;;13.90;99.90;;;;;;20827481;28;20228;-69
2021/12/24 09:34:30;;;;;;;0.20;0.00;;;13.90;99.90;;;;;;20813671;28;20213;-69
2021/12/24 09:44:34;;;;;;;0.20;0.00;;;14.00;99.90;;;;;;20810764;28;20221;-69
2021/12/24 09:54:45;;;;;;;0.20;0.00;;;14.10;99.90;;;;;;20812375;28;20194;-69
2021/12/24 10:04:48;;;;;;;0.20;0.00;;;14.30;99.90;;;;;;20856644;28;20303;-68
2021/12/24 10:14:58;;;;;;;4.10;3.97;;;14.40;99.90;;;;;;20798030;28;20931;-67
2021/12/24 10:25:07;;;;;;;0.20;0.00;;;14.40;99.90;;;;;;20822179;28;20273;-68
2021/12/24 10:35:22;;;;;;;0.20;0.00;;;14.60;99.90;;;;;;20801866;28;20217;-68
2021/12/24 10:45:26;;;;;;;0.20;0.00;;;14.80;99.90;;;;;;20836132;28;20236;-67
2021/12/24 10:55:37;;;;;;;0.20;0.00;;;15.20;99.90;;;;;;20886116;28;20201;-71
2021/12/24 11:05:43;;;;;;;0.93;0.93;;;15.90;99.90;;;;;;20891066;28;20247;-68
2021/12/24 11:15:50;;;;;;;0.20;0.10;;;16.20;99.90;;;;;;20883398;28;20604;-71
2021/12/24 11:25:57;;;;;;;0.20;0.00;;;16.20;99.90;;;;;;20900244;28;20229;-70
2021/12/24 11:36:04;;;;;;;0.20;0.10;;;16.50;99.90;;;;;;20905492;28;20197;-69
2021/12/24 11:46:11;;;;;;;0.20;0.03;;;18.00;99.90;;;;;;20833848;28;20224;-69
2021/12/24 11:56:19;;;;;;;0.20;0.10;;;17.40;99.90;;;;;;20821078;28;20212;-68
2021/12/24 12:06:34;;;;;;;0.20;0.07;;;17.30;99.90;;;;;;20819442;28;20269;-69
2021/12/24 12:16:52;;;;;;;0.20;0.10;;;16.10;99.90;;;;;;20883221;28;20197;-69
2021/12/24 12:26:56;;;;;;;0.20;0.10;;;16.00;99.90;;;;;;20900416;28;20630;-73
2021/12/24 12:37:13;;;;;;;0.20;0.00;;;16.30;99.90;;;;;;20899135;28;20251;-70
2021/12/24 12:47:34;;;;;;;0.20;0.00;;;16.40;99.90;;;;;;20820517;28;20283;-72
2021/12/24 12:57:42;;;;;;;0.20;0.00;;;16.30;99.90;;;;;;20824425;28;20198;-78
2021/12/24 13:07:59;;;;;;;0.20;0.00;;;16.10;99.90;;;;;;20817817;28;20241;-73
2021/12/24 13:18:23;;;;;;;0.20;0.00;;;16.00;99.90;;;;;;20890222;28;20197;-71
2021/12/24 13:28:28;;;;;;;0.20;0.00;;;16.10;99.90;;;;;;20897147;28;20198;-70
2021/12/24 13:38:36;;;;;;;0.20;0.07;;;16.20;99.90;;;;;;20887869;28;20233;-71
2021/12/24 13:49:11;;;;;;;0.20;0.00;;;16.10;99.90;;;;;;20814160;28;20210;-69
2021/12/24 13:59:23;;;;;;;0.20;0.00;;;15.80;99.90;;;;;;20810189;28;20213;-69
2021/12/24 14:09:31;;;;;;;0.20;0.00;;;15.60;99.90;;;;;;20815586;28;20240;-70
2021/12/24 14:19:48;;;;;;;0.20;0.00;;;15.50;99.90;;;;;;20890408;28;20229;-68
2021/12/24 14:29:58;;;;;;;0.20;0.03;;;15.70;99.90;;;;;;20889400;28;20209;-69
2021/12/24 14:40:13;;;;;;;0.20;0.00;;;16.10;99.90;;;;;;20869623;28;20597;-70
2021/12/24 14:50:17;;;;;;;0.20;0.10;;;16.40;99.90;;;;;;20805193;28;20535;-70
2021/12/24 15:00:30;;;;;;;0.20;0.10;;;16.70;99.90;;;;;;20822079;28;20786;-67
2021/12/24 15:10:36;;;;;;;0.20;0.00;;;16.60;99.90;;;;;;20836640;28;20199;-69
2021/12/24 15:20:42;;;;;;;0.20;0.10;;;16.40;99.90;;;;;;20901029;28;20308;-69
2021/12/24 15:30:47;;;;;;;0.20;0.00;;;16.00;99.90;;;;;;20902851;28;20194;-69
2021/12/24 15:40:52;;;;;;;0.20;0.07;;;15.80;99.90;;;;;;20874551;28;20218;-69
2021/12/24 15:50:56;;;;;;;0.20;0.10;;;15.80;99.90;;;;;;20819921;28;20198;-69
2021/12/24 16:01:02;;;;;;;0.20;0.00;;;15.60;99.90;;;;;;20819237;28;20336;-69
2021/12/24 16:11:06;;;;;;;0.20;0.00;;;15.40;99.90;;;;;;20835210;28;20189;-69
2021/12/24 16:21:11;;;;;;;0.20;0.00;;;15.20;99.90;;;;;;20899591;28;20247;-69
2021/12/24 16:31:16;;;;;;;0.20;0.00;;;14.90;99.90;;;;;;20898027;28;20790;-68
2021/12/24 16:41:22;;;;;;;0.20;0.00;;;14.70;99.90;;;;;;20864711;28;20218;-69
2021/12/24 16:51:26;;;;;;;0.20;0.00;;;14.60;99.90;;;;;;20841935;28;20201;-69
2021/12/24 17:01:31;;;;;;;0.20;0.00;;;14.40;99.90;;;;;;20895241;28;20245;-70
2021/12/24 17:11:35;;;;;;;0.20;0.00;;;13.70;99.90;;;;;;20893878;28;20642;-69
2021/12/24 17:21:41;;;;;;;0.20;0.00;;;13.50;99.90;;;;;;20885056;28;20588;-69
2021/12/24 17:31:49;;;;;;;0.20;0.00;;;13.40;99.90;;;;;;20828845;28;20331;-70
2021/12/24 17:41:55;;;;;;;0.20;0.00;;;13.40;99.90;;;;;;20904943;28;20221;-69
2021/12/24 17:52:00;;;;;;;0.87;0.87;;;13.20;99.90;;;;;;20906170;28;20197;-68
2021/12/24 18:02:05;;;;;;;0.20;0.00;;;13.20;99.90;;;;;;20901615;28;20439;-70
2021/12/24 18:12:12;;;;;;;0.20;0.00;;;13.30;99.90;;;;;;20883434;28;20197;-70
2021/12/24 18:22:18;;;;;;;0.20;0.00;;;13.00;99.90;;;;;;20898509;28;20233;-68
2021/12/24 18:32:22;;;;;;;0.20;0.10;;;13.10;99.90;;;;;;20873984;28;20209;-68
2021/12/24 18:42:27;;;;;;;0.20;0.10;;;13.20;99.90;;;;;;20878382;28;20713;-69
2021/12/24 18:52:31;;;;;;;0.20;0.10;;;13.00;99.90;;;;;;20893163;28;20232;-70
2021/12/24 19:02:36;;;;;;;0.20;0.10;;;12.80;99.90;;;;;;20898881;28;20785;-68
2021/12/24 19:12:41;;;;;;;0.20;0.00;;;12.60;99.90;;;;;;20885847;28;20206;-69
2021/12/24 19:22:46;;;;;;;0.20;0.00;;;12.50;99.90;;;;;;20896579;28;20225;-68
2021/12/24 19:32:49;;;;;;;0.30;0.30;;;12.30;99.90;;;;;;20903158;28;20287;-69
2021/12/24 19:42:54;;;;;;;0.20;0.10;;;12.30;99.90;;;;;;20906985;28;20225;-69
2021/12/24 19:52:58;;;;;;;0.20;0.10;;;12.20;99.90;;;;;;20914605;28;20204;-70
2021/12/24 20:03:04;;;;;;;0.20;0.10;;;12.10;99.90;;;;;;20915603;28;20316;-68
2021/12/24 20:13:08;;;;;;;0.20;0.10;;;12.00;99.90;;;;;;20914509;28;20185;-69
2021/12/24 20:23:13;;;;;;;0.20;0.10;;;11.70;99.90;;;;;;20911397;28;20234;-69
2021/12/24 20:33:17;;;;;;;0.20;0.10;;;11.80;99.90;;;;;;20911677;28;20643;-69
2021/12/24 20:43:22;;;;;;;0.20;0.10;;;11.70;99.90;;;;;;20911242;28;20235;-68
2021/12/24 20:53:26;;;;;;;0.20;0.10;;;11.70;99.90;;;;;;20912737;28;20208;-69
2021/12/24 21:03:32;;;;;;;0.33;0.33;;;11.70;99.90;;;;;;20914781;28;20222;-69
2021/12/24 21:13:35;;;;;;;0.20;0.10;;;11.60;99.90;;;;;;20910780;28;20272;-69
2021/12/24 21:23:43;;;;;;;4.53;4.27;;;11.70;99.90;;;;;;20913796;28;20229;-69
2021/12/24 21:33:47;;;;;;;0.20;0.00;;;11.80;99.90;;;;;;20921610;28;20194;-69
2021/12/24 21:43:53;;;;;;;0.20;0.10;;;11.90;99.90;;;;;;20917028;28;20703;-68
2021/12/24 21:53:57;;;;;;;0.20;0.03;;;12.00;99.90;;;;;;20906071;28;20207;-69
2021/12/24 22:04:27;;;;;;;0.20;0.10;;;11.90;99.90;;;;;;20904143;28;20319;-68
2021/12/24 22:14:31;;;;;;;0.20;0.10;;;12.00;99.90;;;;;;20905456;28;20555;-70
2021/12/24 22:24:40;;;;;;;0.20;0.10;;;11.80;99.90;;;;;;20904837;28;20221;-70
2021/12/24 22:34:44;;;;;;;0.20;0.07;;;11.90;99.90;;;;;;20903829;28;20221;-69
2021/12/24 22:44:55;;;;;;;0.20;0.10;;;11.80;99.90;;;;;;20902851;28;20705;-67
2021/12/24 22:54:59;;;;;;;0.20;0.00;;;11.90;99.90;;;;;;20901496;28;20228;-69
2021/12/24 23:05:11;;;;;;;0.20;0.10;;;12.00;99.90;;;;;;20903325;28;20232;-69
2021/12/24 23:15:16;;;;;;;0.20;0.10;;;12.10;99.90;;;;;;20906727;28;20284;-69
2021/12/24 23:25:21;;;;;;;0.20;0.03;;;11.90;99.90;;;;;;20915586;28;20609;-69
2021/12/24 23:35:25;;;;;;;0.20;0.00;;;11.90;99.90;;;;;;20916868;28;20205;-68
2021/12/24 23:45:50;;;;;;;0.20;0.10;;;12.10;99.90;;;;;;20915688;28;20271;-69
2021/12/24 23:55:55;;;;;;;0.20;0.10;;;12.10;99.90;;;;;;20914279;28;20198;-68
